Time;durP1;ratioP1;P1;durP2;ratioP2;P2;SDS_P1;SDS_P2;PMS_P1;PMS_P2;Temp;Humidity;BMP_temperature;BMP_pressure;BME280_temperature;BME280_humidity;BME280_pressure;Samples;Min_cycle;Max_cycle;Signal;HPM_P1;HPM_P2
2022/06/22 00:00:21;;;;;;;12.20;9.77;;;13.50;99.90;;;;;;4956537;29;20043;-63
2022/06/22 00:02:51;;;;;;;13.80;9.55;;;13.50;99.90;;;;;;4955389;28;20113;-63
2022/06/22 00:05:36;;;;;;;12.90;8.90;;;13.50;99.90;;;;;;4968212;28;20134;-63
2022/06/22 00:08:05;;;;;;;14.18;9.55;;;13.40;99.90;;;;;;4955876;28;20061;-62
2022/06/22 00:10:50;;;;;;;12.85;9.60;;;13.30;99.90;;;;;;4958693;28;20125;-62
2022/06/22 00:13:23;;;;;;;12.52;9.63;;;13.30;99.90;;;;;;4960257;28;20051;-63
2022/06/22 00:15:52;;;;;;;12.93;10.02;;;13.20;99.90;;;;;;4956375;28;20522;-63
2022/06/22 00:18:31;;;;;;;11.30;6.47;;;13.20;99.90;;;;;;4938507;28;20043;-63
2022/06/22 00:21:05;;;;;;;9.50;7.00;;;13.10;99.90;;;;;;4962030;28;20416;-63
2022/06/22 00:23:36;;;;;;;11.15;9.00;;;13.00;99.90;;;;;;4955919;28;20444;-63
2022/06/22 00:26:25;;;;;;;;;;;13.00;99.90;;;;;;4939581;29;20055;-63
2022/06/22 00:29:09;;;;;;;10.65;8.48;;;12.90;99.90;;;;;;4972595;28;20357;-62
2022/06/22 00:31:37;;;;;;;9.75;7.38;;;12.90;99.90;;;;;;4956585;28;20051;-62
2022/06/22 00:34:09;;;;;;;10.35;7.97;;;12.80;99.90;;;;;;4956212;29;20094;-63
2022/06/22 00:36:40;;;;;;;12.10;8.77;;;12.80;99.90;;;;;;4961246;28;20053;-63
2022/06/22 00:39:15;;;;;;;9.88;8.63;;;12.80;99.90;;;;;;4963050;28;20114;-63
2022/06/22 00:41:46;;;;;;;12.13;8.52;;;12.70;99.90;;;;;;4955162;28;20466;-62
2022/06/22 00:44:15;;;;;;;9.60;7.20;;;12.50;99.90;;;;;;4960554;28;20376;-63
2022/06/22 00:46:52;;;;;;;10.13;7.80;;;12.50;99.90;;;;;;4939892;28;20054;-62
2022/06/22 00:49:21;;;;;;;8.70;6.93;;;12.40;99.90;;;;;;4955391;28;20044;-63
2022/06/22 00:51:47;;;;;;;11.30;7.80;;;12.30;99.90;;;;;;4959752;28;20050;-62
2022/06/22 00:54:24;;;;;;;10.90;7.20;;;12.30;99.90;;;;;;4962463;28;20043;-63
2022/06/22 00:57:11;;;;;;;10.63;8.68;;;12.30;99.90;;;;;;4955716;28;20054;-62
2022/06/22 00:59:46;;;;;;;10.75;8.45;;;12.30;99.90;;;;;;4955664;29;20130;-62
2022/06/22 01:02:28;;;;;;;189.45;10.50;;;12.20;99.90;;;;;;4966654;28;20515;-63
2022/06/22 01:05:04;;;;;;;100.63;6.25;;;12.10;99.90;;;;;;4962117;28;20456;-63
2022/06/22 01:08:00;;;;;;;22.58;4.60;;;11.90;99.90;;;;;;4955531;29;20044;-63
2022/06/22 01:10:39;;;;;;;40.97;4.13;;;11.90;99.90;;;;;;4962501;28;20047;-62
2022/06/22 01:13:32;;;;;;;3.70;3.10;;;11.90;99.90;;;;;;4957675;28;20439;-62
2022/06/22 01:16:09;;;;;;;5.53;4.25;;;11.70;99.90;;;;;;4955522;29;20039;-64
2022/06/22 01:18:41;;;;;;;5.47;3.85;;;11.70;99.90;;;;;;4968125;28;20039;-62
2022/06/22 01:21:24;;;;;;;11.48;8.73;;;11.70;99.90;;;;;;4959368;28;20039;-62
2022/06/22 01:23:52;;;;;;;11.30;9.05;;;11.70;99.90;;;;;;4955158;29;20111;-62
2022/06/22 01:26:42;;;;;;;15.43;10.18;;;11.70;99.90;;;;;;4959267;28;20038;-62
2022/06/22 01:29:30;;;;;;;9.32;7.22;;;11.80;99.90;;;;;;4960431;28;20093;-62
2022/06/22 01:32:03;;;;;;;10.73;8.65;;;11.80;99.90;;;;;;4954867;28;20043;-63
2022/06/22 01:34:38;;;;;;;38.08;11.93;;;11.60;99.90;;;;;;4960710;28;20089;-62
2022/06/22 01:37:06;;;;;;;17.77;10.60;;;11.50;99.90;;;;;;4939083;29;20526;-63
2022/06/22 01:39:32;;;;;;;25.50;10.38;;;11.60;99.90;;;;;;4937441;29;20086;-62
2022/06/22 01:42:21;;;;;;;12.52;8.65;;;11.50;99.90;;;;;;4954091;29;20330;-62
2022/06/22 01:45:05;;;;;;;24.20;9.45;;;11.40;99.90;;;;;;4962613;28;20036;-62
2022/06/22 01:47:36;;;;;;;11.85;8.45;;;11.40;99.90;;;;;;4952751;28;20042;-63
2022/06/22 01:50:02;;;;;;;;;;;11.40;99.90;;;;;;4954816;28;20636;-62
2022/06/22 01:53:03;;;;;;;18.95;6.65;;;11.30;99.90;;;;;;4964579;28;20546;-62
2022/06/22 01:55:49;;;;;;;8.43;6.95;;;11.30;99.90;;;;;;4953007;28;20055;-62
2022/06/22 01:58:15;;;;;;;14.50;8.10;;;11.30;99.90;;;;;;4953588;28;20485;-62
2022/06/22 02:00:57;;;;;;;55.88;13.10;;;11.30;99.90;;;;;;4956913;28;20074;-63
2022/06/22 02:03:49;;;;;;;17.08;11.52;;;11.30;99.90;;;;;;4961933;28;20043;-62
2022/06/22 02:09:23;;;;;;;17.33;10.80;;;11.20;99.90;;;;;;4967831;28;20046;-62
2022/06/22 02:12:18;;;;;;;13.82;10.68;;;11.30;99.90;;;;;;4953691;28;20035;-62
2022/06/22 02:14:44;;;;;;;14.95;11.05;;;11.30;99.90;;;;;;4955773;28;20043;-62
2022/06/22 02:17:14;;;;;;;17.42;11.40;;;11.30;99.90;;;;;;4958527;28;20036;-62
2022/06/22 02:19:41;;;;;;;14.10;10.68;;;11.40;99.90;;;;;;4952838;28;20484;-61
2022/06/22 02:22:11;;;;;;;24.17;7.50;;;11.40;99.90;;;;;;4953253;29;20058;-62
2022/06/22 02:24:43;;;;;;;282.40;14.35;;;11.10;99.90;;;;;;4957903;28;20039;-62
2022/06/22 02:27:29;;;;;;;212.15;12.50;;;10.90;99.90;;;;;;4954365;28;20031;-62
2022/06/22 02:29:58;;;;;;;283.58;13.65;;;10.60;99.90;;;;;;4935401;29;20444;-62
2022/06/22 02:32:33;;;;;;;68.45;8.23;;;10.40;99.90;;;;;;4967732;28;20078;-62
2022/06/22 02:34:59;;;;;;;9.02;7.70;;;10.40;99.90;;;;;;4953718;28;20500;-62
2022/06/22 02:37:29;;;;;;;9.68;6.97;;;10.50;99.90;;;;;;4956580;28;20086;-62
2022/06/22 02:39:58;;;;;;;8.63;7.63;;;10.50;99.90;;;;;;4955168;28;20081;-62
2022/06/22 02:45:10;;;;;;;39.45;9.45;;;10.60;99.90;;;;;;4953557;28;20089;-62
2022/06/22 02:47:47;;;;;;;17.85;8.40;;;10.50;99.90;;;;;;4956649;28;20034;-62
2022/06/22 02:50:17;;;;;;;219.93;10.25;;;10.40;99.90;;;;;;4910045;29;20094;-62
2022/06/22 02:52:50;;;;;;;16.35;6.50;;;10.30;99.90;;;;;;4940768;28;20572;-62
2022/06/22 02:55:19;;;;;;;78.97;8.50;;;10.20;99.90;;;;;;4952434;28;20500;-62
2022/06/22 02:57:53;;;;;;;217.43;10.23;;;10.20;99.90;;;;;;4960766;28;20046;-62
2022/06/22 03:00:34;;;;;;;132.18;10.73;;;10.40;99.90;;;;;;4963103;28;20504;-62
2022/06/22 03:03:06;;;;;;;36.95;12.88;;;10.30;99.90;;;;;;4966362;28;20525;-62
2022/06/22 03:05:34;;;;;;;17.42;11.90;;;10.30;99.90;;;;;;4968603;28;20046;-62
2022/06/22 03:08:01;;;;;;;21.38;13.63;;;10.40;99.90;;;;;;4961237;28;20491;-62
2022/06/22 03:10:55;;;;;;;57.53;11.85;;;10.40;99.90;;;;;;4955232;28;20098;-62
2022/06/22 03:13:26;;;;;;;174.43;14.90;;;10.50;99.90;;;;;;4935423;28;20053;-62
2022/06/22 03:15:52;;;;;;;391.83;15.82;;;10.50;99.90;;;;;;4942530;29;20179;-62
2022/06/22 03:18:24;;;;;;;216.20;10.52;;;10.60;99.90;;;;;;4939815;29;20407;-62
2022/06/22 03:21:03;;;;;;;41.63;11.07;;;10.50;99.90;;;;;;4952973;29;20436;-62
2022/06/22 03:23:43;;;;;;;15.55;9.98;;;10.50;99.90;;;;;;4957730;28;20517;-62
2022/06/22 03:26:25;;;;;;;14.68;10.65;;;10.50;99.90;;;;;;4960359;28;20051;-62
2022/06/22 03:29:00;;;;;;;13.82;11.02;;;10.50;99.90;;;;;;4953131;28;20042;-62
2022/06/22 03:31:32;;;;;;;16.85;11.27;;;10.50;99.90;;;;;;4959635;28;20761;-63
2022/06/22 03:34:04;;;;;;;15.60;11.70;;;10.60;99.90;;;;;;4956870;28;20039;-62
2022/06/22 03:36:36;;;;;;;24.55;12.27;;;10.60;99.90;;;;;;4952676;28;20109;-62
2022/06/22 03:39:09;;;;;;;14.40;11.43;;;10.60;99.90;;;;;;4960318;28;20035;-62
2022/06/22 03:41:41;;;;;;;15.15;11.43;;;10.50;99.90;;;;;;4952571;28;20118;-62
2022/06/22 03:44:13;;;;;;;42.40;11.23;;;10.50;99.90;;;;;;4967020;28;20038;-63
2022/06/22 03:46:42;;;;;;;243.02;13.07;;;10.50;99.90;;;;;;4963705;28;20043;-62
2022/06/22 03:49:26;;;;;;;79.00;10.25;;;10.40;99.90;;;;;;4969596;28;20498;-62
2022/06/22 03:51:54;;;;;;;11.40;9.00;;;10.30;99.90;;;;;;4952450;28;20031;-62
2022/06/22 03:54:43;;;;;;;15.77;10.00;;;10.30;99.90;;;;;;4953309;29;20055;-62
2022/06/22 03:57:12;;;;;;;28.02;11.55;;;10.30;99.90;;;;;;4964180;28;20062;-62
2022/06/22 03:59:41;;;;;;;19.33;11.32;;;10.30;99.90;;;;;;4953385;28;20054;-62
2022/06/22 04:02:06;;;;;;;12.73;10.38;;;10.30;99.90;;;;;;4953117;29;20043;-62
2022/06/22 04:04:32;;;;;;;13.77;10.27;;;10.40;99.90;;;;;;4958637;28;20038;-62
2022/06/22 04:06:58;;;;;;;33.05;13.75;;;10.40;99.90;;;;;;4953932;28;20110;-62
2022/06/22 04:09:27;;;;;;;18.42;10.60;;;10.50;99.90;;;;;;4952452;29;20043;-62
2022/06/22 04:12:04;;;;;;;16.10;11.80;;;10.60;99.90;;;;;;4953800;28;20041;-62
2022/06/22 04:14:39;;;;;;;18.90;13.02;;;10.60;99.90;;;;;;4950944;28;20496;-62
2022/06/22 04:17:23;;;;;;;20.42;14.30;;;10.70;99.90;;;;;;4952441;28;20400;-63
2022/06/22 04:20:10;;;;;;;18.80;13.38;;;10.90;99.90;;;;;;4951006;28;20035;-62
2022/06/22 04:22:41;;;;;;;23.25;14.77;;;11.00;99.90;;;;;;4965363;28;20476;-62
2022/06/22 04:25:23;;;;;;;24.70;15.13;;;11.10;99.90;;;;;;4956227;28;20050;-62
2022/06/22 04:27:51;;;;;;;26.13;15.48;;;11.20;99.90;;;;;;4954243;28;20043;-62
2022/06/22 04:30:22;;;;;;;23.08;14.98;;;11.30;99.90;;;;;;4968121;28;20118;-63
2022/06/22 04:33:14;;;;;;;22.83;14.88;;;11.40;99.90;;;;;;4955473;28;20106;-62
2022/06/22 04:36:01;;;;;;;22.45;14.63;;;11.40;99.90;;;;;;4956273;28;20043;-62
2022/06/22 04:38:36;;;;;;;22.42;14.68;;;11.60;99.90;;;;;;4967630;28;20049;-62
2022/06/22 04:41:24;;;;;;;25.10;15.43;;;11.60;99.90;;;;;;4954964;28;20134;-62
2022/06/22 04:43:50;;;;;;;25.10;15.27;;;11.70;99.90;;;;;;4955919;29;20458;-62
2022/06/22 04:46:22;;;;;;;21.55;14.45;;;11.80;99.90;;;;;;4961280;28;20043;-62
2022/06/22 04:48:52;;;;;;;21.48;14.18;;;11.90;99.90;;;;;;4957071;28;20035;-62
2022/06/22 04:51:24;;;;;;;25.67;15.05;;;11.90;99.90;;;;;;4955185;28;20031;-62
2022/06/22 04:53:58;;;;;;;21.80;15.38;;;12.00;99.90;;;;;;4957749;28;20042;-62
2022/06/22 04:56:38;;;;;;;21.48;14.65;;;12.00;99.90;;;;;;4959247;28;20115;-62
2022/06/22 04:59:09;;;;;;;21.73;15.07;;;12.10;99.90;;;;;;4955593;28;20043;-62
2022/06/22 05:01:44;;;;;;;21.50;15.00;;;12.10;99.90;;;;;;4956967;28;20039;-62
2022/06/22 05:04:18;;;;;;;22.35;14.93;;;12.20;99.90;;;;;;4965605;28;20432;-63
2022/06/22 05:07:11;;;;;;;22.45;14.88;;;12.20;99.90;;;;;;4955052;28;20039;-62
2022/06/22 05:09:40;;;;;;;22.48;15.07;;;12.30;99.90;;;;;;4962701;28;20045;-62
2022/06/22 05:12:13;;;;;;;26.23;15.52;;;12.30;99.90;;;;;;4964089;28;20043;-62
2022/06/22 05:14:39;;;;;;;22.42;15.65;;;12.40;99.90;;;;;;4954853;28;20047;-62
2022/06/22 05:17:16;;;;;;;22.77;14.77;;;12.40;99.90;;;;;;4963467;28;20528;-63
2022/06/22 05:20:15;;;;;;;22.92;15.02;;;12.50;99.90;;;;;;4953000;28;20031;-62
2022/06/22 05:22:40;;;;;;;24.63;16.38;;;12.50;99.90;;;;;;4960169;28;20134;-63
2022/06/22 05:25:10;;;;;;;22.98;16.75;;;12.60;99.90;;;;;;4954106;28;20110;-63
2022/06/22 05:28:08;;;;;;;27.90;17.70;;;12.70;99.90;;;;;;4960669;28;20043;-62
2022/06/22 05:30:39;;;;;;;28.13;17.60;;;12.80;99.90;;;;;;4962410;28;20094;-62
2022/06/22 05:33:09;;;;;;;29.70;18.80;;;12.80;99.90;;;;;;4960468;28;20042;-63
2022/06/22 05:35:46;;;;;;;28.33;17.98;;;12.90;99.90;;;;;;4974483;28;20039;-63
2022/06/22 05:38:14;;;;;;;27.90;18.30;;;13.00;99.90;;;;;;4967286;28;20552;-63
2022/06/22 05:40:41;;;;;;;28.83;17.98;;;13.10;99.90;;;;;;4942779;28;20101;-63
2022/06/22 05:43:08;;;;;;;30.38;18.27;;;13.20;99.90;;;;;;4961012;28;20119;-63
2022/06/22 05:45:47;;;;;;;30.80;18.98;;;13.20;99.90;;;;;;4960869;28;20057;-62
2022/06/22 05:48:23;;;;;;;29.02;18.48;;;13.30;99.90;;;;;;4970901;28;20039;-63
2022/06/22 05:51:06;;;;;;;26.90;18.65;;;13.40;99.90;;;;;;4961516;28;20046;-63
2022/06/22 05:54:10;;;;;;;32.30;19.95;;;13.50;99.90;;;;;;4954643;29;20039;-63
2022/06/22 05:56:43;;;;;;;33.33;20.08;;;13.60;99.90;;;;;;4940352;28;20137;-63
2022/06/22 05:59:19;;;;;;;33.50;18.95;;;13.70;99.90;;;;;;4953728;28;20039;-63
2022/06/22 06:01:51;;;;;;;29.70;19.10;;;13.80;99.90;;;;;;4960453;28;20063;-62
2022/06/22 06:04:25;;;;;;;;;;;14.00;99.90;;;;;;4939159;28;20462;-64
2022/06/22 06:06:55;;;;;;;31.58;20.52;;;14.10;99.90;;;;;;4964060;28;19918;-63
2022/06/22 06:09:25;;;;;;;28.35;19.17;;;14.20;99.90;;;;;;4953938;28;20046;-63
2022/06/22 06:12:02;;;;;;;27.25;18.33;;;14.30;99.90;;;;;;4955278;28;20074;-63
2022/06/22 06:14:33;;;;;;;29.00;18.65;;;14.40;99.90;;;;;;4961971;28;20082;-63
2022/06/22 06:17:04;;;;;;;29.60;18.98;;;14.60;99.90;;;;;;4955632;28;20122;-63
2022/06/22 06:19:36;;;;;;;24.55;17.17;;;14.70;99.90;;;;;;4969275;28;20035;-63
2022/06/22 06:22:04;;;;;;;24.73;17.05;;;14.80;99.90;;;;;;4967132;28;20487;-63
2022/06/22 06:27:34;;;;;;;26.80;17.35;;;14.90;99.90;;;;;;4973473;28;20042;-63
2022/06/22 06:27:38;;;;;;;24.92;17.13;;;14.90;99.90;;;;;;4969115;28;20058;-63
2022/06/22 06:30:16;;;;;;;24.90;15.55;;;15.00;99.90;;;;;;4952215;29;20391;-63
2022/06/22 06:33:05;;;;;;;24.48;16.55;;;15.10;99.90;;;;;;4964760;28;20078;-63
2022/06/22 06:35:42;;;;;;;21.85;15.75;;;15.20;99.90;;;;;;4963328;28;20534;-63
2022/06/22 06:38:39;;;;;;;23.02;15.25;;;15.30;99.90;;;;;;4962460;28;20093;-63
2022/06/22 06:41:25;;;;;;;22.20;14.20;;;15.40;99.90;;;;;;4931891;28;20520;-63
2022/06/22 06:44:02;;;;;;;18.92;12.80;;;15.50;99.90;;;;;;4952219;28;20118;-63
2022/06/22 06:46:53;;;;;;;20.25;12.60;;;15.50;99.90;;;;;;4953034;29;20122;-63
2022/06/22 06:49:35;;;;;;;15.38;11.80;;;15.50;99.90;;;;;;4960678;28;20043;-63
2022/06/22 06:52:17;;;;;;;15.75;12.07;;;15.60;99.90;;;;;;4960365;28;20047;-63
2022/06/22 06:54:52;;;;;;;19.50;12.65;;;15.70;99.90;;;;;;4954174;28;20043;-63
2022/06/22 06:57:20;;;;;;;20.75;13.20;;;15.70;99.90;;;;;;4957205;28;20035;-63
2022/06/22 06:59:49;;;;;;;23.60;13.60;;;15.80;99.90;;;;;;4964702;28;20042;-62
2022/06/22 07:02:21;;;;;;;21.15;14.27;;;15.80;99.90;;;;;;4972372;28;20070;-63
2022/06/22 07:04:47;;;;;;;18.27;14.18;;;15.90;99.90;;;;;;4968583;28;20042;-63
2022/06/22 07:07:21;;;;;;;19.13;13.52;;;16.00;99.90;;;;;;4963281;28;20033;-63
2022/06/22 07:09:49;;;;;;;19.90;11.75;;;16.10;99.90;;;;;;4948470;29;20039;-63
2022/06/22 07:12:52;;;;;;;19.02;12.30;;;16.10;99.90;;;;;;4957893;28;20035;-63
2022/06/22 07:15:22;;;;;;;18.42;11.57;;;16.20;99.90;;;;;;4939005;28;20054;-63
2022/06/22 07:17:53;;;;;;;17.65;12.68;;;16.20;99.90;;;;;;4963449;28;20043;-63
2022/06/22 07:20:33;;;;;;;15.30;12.03;;;16.30;99.90;;;;;;4952608;28;20043;-63
2022/06/22 07:23:10;;;;;;;16.15;11.40;;;16.30;99.90;;;;;;4953783;28;20117;-63
2022/06/22 07:25:58;;;;;;;15.75;11.70;;;16.40;99.90;;;;;;4941841;28;20479;-63
2022/06/22 07:28:29;;;;;;;16.10;11.23;;;16.40;99.90;;;;;;4951154;28;20062;-63
2022/06/22 07:31:05;;;;;;;17.30;11.88;;;16.40;99.90;;;;;;4954244;28;20046;-66
2022/06/22 07:33:54;;;;;;;18.33;11.25;;;16.40;99.90;;;;;;4963510;28;20039;-66
2022/06/22 07:36:35;;;;;;;14.32;8.85;;;16.60;99.90;;;;;;4953036;29;20085;-66
2022/06/22 07:39:16;;;;;;;13.77;8.57;;;16.60;99.90;;;;;;4952407;28;20512;-66
2022/06/22 07:41:42;;;;;;;11.73;8.47;;;16.70;99.90;;;;;;4957197;28;20113;-66
2022/06/22 07:44:26;;;;;;;12.38;8.48;;;16.90;99.90;;;;;;4938069;29;20070;-66
2022/06/22 07:46:55;;;;;;;12.82;8.88;;;16.90;99.90;;;;;;4953111;28;20039;-66
2022/06/22 07:49:57;;;;;;;13.25;8.43;;;17.00;99.90;;;;;;4954285;28;20067;-66
2022/06/22 07:52:32;;;;;;;12.02;7.82;;;17.00;99.90;;;;;;4959536;28;20050;-66
2022/06/22 07:55:40;;;;;;;11.50;8.57;;;17.10;99.90;;;;;;4948410;28;20047;-66
2022/06/22 07:58:34;;;;;;;14.02;8.80;;;17.10;99.90;;;;;;4962846;28;20113;-66
2022/06/22 08:01:09;;;;;;;13.35;9.30;;;17.20;99.90;;;;;;4952674;28;20118;-66
2022/06/22 08:03:46;;;;;;;13.93;9.13;;;17.20;99.90;;;;;;4966554;28;20130;-66
2022/06/22 08:06:21;;;;;;;13.20;10.30;;;17.30;99.90;;;;;;4937908;29;20419;-66
2022/06/22 08:08:55;;;;;;;15.27;9.90;;;17.50;99.90;;;;;;4955126;28;20031;-66
2022/06/22 08:11:30;;;;;;;9.85;7.75;;;17.50;99.90;;;;;;4933106;28;20545;-66
2022/06/22 08:14:16;;;;;;;10.90;7.95;;;17.50;99.90;;;;;;4959980;28;20054;-66
2022/06/22 08:16:48;;;;;;;11.32;7.70;;;17.50;99.90;;;;;;4955737;28;20495;-66
2022/06/22 08:19:14;;;;;;;11.43;7.03;;;17.60;99.90;;;;;;4937630;29;20412;-66
2022/06/22 08:21:44;;;;;;;8.75;6.90;;;17.60;99.90;;;;;;4938280;28;20043;-66
2022/06/22 08:24:12;;;;;;;7.53;6.50;;;17.70;99.90;;;;;;4943821;28;20043;-66
2022/06/22 08:26:39;;;;;;;9.45;6.70;;;17.80;99.90;;;;;;4967674;28;20122;-66
2022/06/22 08:29:05;;;;;;;14.13;7.47;;;17.80;99.90;;;;;;4948586;28;20031;-66
2022/06/22 08:32:02;;;;;;;11.52;7.85;;;17.90;99.90;;;;;;4966091;28;20054;-66
2022/06/22 08:34:42;;;;;;;10.15;6.93;;;18.10;99.90;;;;;;4964980;28;20054;-66
2022/06/22 08:37:16;;;;;;;7.63;5.60;;;18.20;99.90;;;;;;4955161;29;20062;-66
2022/06/22 08:40:05;;;;;;;6.97;5.68;;;18.30;99.90;;;;;;4946188;28;20130;-66
2022/06/22 08:42:40;;;;;;;6.93;5.15;;;18.40;99.90;;;;;;4915346;28;20047;-67
2022/06/22 08:45:18;;;;;;;8.82;6.40;;;18.40;99.90;;;;;;4961723;28;20065;-66
2022/06/22 08:48:15;;;;;;;8.38;5.57;;;18.60;99.90;;;;;;4967960;28;20045;-66
2022/06/22 08:51:21;;;;;;;7.25;4.60;;;18.70;99.90;;;;;;4945700;28;20034;-65
2022/06/22 08:54:18;;;;;;;5.55;3.58;;;18.70;99.90;;;;;;4940722;29;20511;-65
2022/06/22 08:57:04;;;;;;;5.88;3.90;;;18.80;99.90;;;;;;4955834;28;20057;-65
2022/06/22 08:59:49;;;;;;;5.72;3.53;;;18.90;99.80;;;;;;4945247;28;20106;-65
2022/06/22 09:02:46;;;;;;;10.40;3.83;;;19.10;97.30;;;;;;4963258;28;20034;-65
2022/06/22 09:05:21;;;;;;;5.30;3.60;;;19.10;99.90;;;;;;4960399;28;20121;-65
2022/06/22 09:08:05;;;;;;;6.28;2.80;;;19.30;99.90;;;;;;4964612;28;20034;-65
2022/06/22 09:10:59;;;;;;;5.43;2.70;;;19.40;99.90;;;;;;4960215;28;20050;-65
2022/06/22 09:14:00;;;;;;;4.05;2.90;;;19.40;98.50;;;;;;4939621;28;20113;-65
2022/06/22 09:17:02;;;;;;;6.22;3.80;;;19.50;96.50;;;;;;4955759;28;20055;-65
2022/06/22 09:19:47;;;;;;;5.70;3.90;;;19.50;98.60;;;;;;4956527;28;20622;-65
2022/06/22 09:22:15;;;;;;;6.72;3.80;;;19.60;99.00;;;;;;4971337;28;20054;-65
2022/06/22 09:25:17;;;;;;;5.65;3.47;;;19.70;98.70;;;;;;4958120;28;20039;-66
2022/06/22 09:27:52;;;;;;;5.82;3.60;;;19.80;96.70;;;;;;4960939;28;20407;-66
2022/06/22 09:31:14;;;;;;;3.90;2.40;;;19.90;98.10;;;;;;4967374;28;20035;-66
2022/06/22 09:33:58;;;;;;;8.02;3.40;;;19.90;88.30;;;;;;4879163;29;20052;-66
2022/06/22 09:36:30;;;;;;;5.68;3.00;;;19.90;97.30;;;;;;4964782;28;20090;-66
2022/06/22 09:39:02;;;;;;;6.70;3.85;;;20.10;97.70;;;;;;4952600;28;20050;-65
2022/06/22 09:41:30;;;;;;;4.85;3.70;;;20.30;97.10;;;;;;4971021;28;20122;-65
2022/06/22 09:43:58;;;;;;;6.45;3.90;;;20.30;96.20;;;;;;4953682;28;20130;-65
2022/06/22 09:46:39;;;;;;;7.70;4.32;;;20.40;96.40;;;;;;4959770;28;20038;-66
2022/06/22 09:49:05;;;;;;;6.85;4.50;;;20.60;96.10;;;;;;4948176;28;20047;-66
2022/06/22 09:51:49;;;;;;;7.82;4.57;;;20.70;97.30;;;;;;4952432;28;20051;-66
2022/06/22 09:57:29;;;;;;;;;;;21.00;96.50;;;;;;4954516;28;20051;-66
2022/06/22 10:00:03;;;;;;;6.95;3.30;;;20.80;90.70;;;;;;4953320;29;19967;-66
2022/06/22 10:02:50;;;;;;;7.25;3.60;;;20.70;95.80;;;;;;4955590;28;20042;-66
2022/06/22 10:05:16;;;;;;;4.95;2.90;;;20.80;95.50;;;;;;4964507;28;20042;-66
2022/06/22 10:08:41;;;;;;;4.93;2.88;;;20.80;95.20;;;;;;4953299;28;20039;-66
2022/06/22 10:11:49;;;;;;;3.50;2.63;;;20.90;86.80;;;;;;4926254;29;20048;-66
2022/06/22 10:14:41;;;;;;;4.43;3.25;;;21.00;84.50;;;;;;4930693;29;20095;-66
2022/06/22 10:17:30;;;;;;;5.13;3.30;;;21.10;90.70;;;;;;4951357;29;20089;-66
2022/06/22 10:20:14;;;;;;;5.75;2.92;;;21.30;92.40;;;;;;4956536;28;20093;-66
2022/06/22 10:23:17;;;;;;;4.88;3.00;;;21.40;91.90;;;;;;4956075;28;20043;-66
2022/06/22 10:26:01;;;;;;;4.45;2.50;;;21.50;84.60;;;;;;4951321;28;20054;-66
2022/06/22 10:28:58;;;;;;;4.10;2.53;;;21.60;90.30;;;;;;4965884;28;20049;-66
2022/06/22 10:31:29;;;;;;;4.18;2.63;;;21.70;92.10;;;;;;4958372;28;20488;-66
2022/06/22 10:34:18;;;;;;;5.78;2.50;;;21.60;92.10;;;;;;4956390;28;20046;-66
2022/06/22 10:37:01;;;;;;;4.82;2.78;;;21.70;88.50;;;;;;4960357;28;20054;-66
2022/06/22 10:39:48;;;;;;;5.30;3.20;;;21.90;90.50;;;;;;4954144;28;20046;-65
2022/06/22 10:45:30;;;;;;;4.47;3.20;;;22.20;90.00;;;;;;4966848;28;20038;-65
2022/06/22 10:48:17;;;;;;;5.35;3.40;;;22.40;91.80;;;;;;4951742;28;20099;-66
2022/06/22 10:51:05;;;;;;;5.07;2.78;;;22.30;89.70;;;;;;4950905;28;20039;-65
2022/06/22 10:53:49;;;;;;;5.35;2.65;;;22.40;83.30;;;;;;4962027;28;20093;-66
2022/06/22 10:56:50;;;;;;;4.20;2.42;;;22.40;73.80;;;;;;4957517;28;20051;-66
2022/06/22 10:59:32;;;;;;;9.80;2.95;;;22.30;73.40;;;;;;4952417;29;20166;-65
2022/06/22 11:02:15;;;;;;;9.93;2.38;;;22.20;73.40;;;;;;4959015;28;20040;-66
2022/06/22 11:05:11;;;;;;;2.88;2.22;;;22.20;81.10;;;;;;4958865;28;20058;-66
2022/06/22 11:08:13;;;;;;;4.25;2.58;;;22.20;78.90;;;;;;4964791;28;20041;-66
2022/06/22 11:10:52;;;;;;;3.67;2.60;;;22.30;74.70;;;;;;5048071;23;20049;-65
2022/06/22 11:13:40;;;;;;;5.18;2.60;;;22.50;79.20;;;;;;4969543;28;20042;-65
2022/06/22 11:34:48;;;;;;;5.15;2.42;;;23.40;75.00;;;;;;5564578;23;20426;-65
2022/06/22 11:37:53;;;;;;;5.72;2.47;;;23.50;65.30;;;;;;4960540;28;20035;-65
2022/06/22 11:40:36;;;;;;;3.08;1.98;;;23.60;72.80;;;;;;5219691;23;20048;-65
2022/06/22 11:43:19;;;;;;;4.30;2.33;;;23.60;69.70;;;;;;4972321;28;20033;-66
2022/06/22 11:45:58;;;;;;;4.60;2.20;;;23.70;68.80;;;;;;4991306;28;20065;-66
2022/06/22 11:48:48;;;;;;;3.45;2.40;;;23.80;63.30;;;;;;5000157;28;20049;-66
2022/06/22 11:51:29;;;;;;;3.78;2.03;;;24.00;65.70;;;;;;4970394;23;20527;-64
2022/06/22 11:54:21;;;;;;;7.72;2.45;;;23.90;62.40;;;;;;4955552;28;20126;-64
2022/06/22 11:57:06;;;;;;;4.90;2.40;;;23.90;69.60;;;;;;4925653;28;20050;-65
2022/06/22 12:00:13;;;;;;;3.65;2.75;;;23.90;70.40;;;;;;4953985;28;20035;-64
2022/06/22 12:02:41;;;;;;;4.65;2.60;;;24.10;70.60;;;;;;4953596;28;20106;-64
2022/06/22 12:05:32;;;;;;;4.63;2.80;;;24.10;69.80;;;;;;4953541;28;20060;-64
2022/06/22 12:08:18;;;;;;;7.80;2.70;;;24.10;78.70;;;;;;4964648;28;20038;-66
2022/06/22 12:11:02;;;;;;;5.88;2.60;;;24.10;68.60;;;;;;4959791;28;20439;-66
2022/06/22 12:17:18;;;;;;;4.10;2.45;;;24.40;61.80;;;;;;4957651;28;22336;-66
2022/06/22 12:20:07;;;;;;;4.53;2.45;;;24.50;61.70;;;;;;4972842;28;20061;-66
2022/06/22 12:23:12;;;;;;;4.45;2.40;;;24.70;62.10;;;;;;4974398;28;20043;-66
2022/06/22 12:26:12;;;;;;;5.13;2.60;;;24.80;61.00;;;;;;4952773;28;20126;-66
2022/06/22 12:28:49;;;;;;;4.10;2.78;;;24.80;62.50;;;;;;4957704;28;20197;-66
2022/06/22 12:31:27;;;;;;;5.43;2.50;;;24.90;61.70;;;;;;4968570;28;20066;-66
2022/06/22 12:33:59;;;;;;;6.65;2.80;;;25.00;60.30;;;;;;4957153;28;20118;-66
2022/06/22 12:36:41;;;;;;;4.78;2.40;;;24.90;61.80;;;;;;4963062;28;20131;-66
2022/06/22 12:39:16;;;;;;;4.25;2.25;;;24.90;62.00;;;;;;4953697;28;20561;-66
2022/06/22 12:41:48;;;;;;;4.40;2.45;;;24.90;66.60;;;;;;4951656;28;20082;-66
2022/06/22 12:44:19;;;;;;;7.95;3.42;;;25.00;63.90;;;;;;4958283;28;20098;-66
2022/06/22 12:46:54;;;;;;;3.47;2.50;;;25.20;62.50;;;;;;4955045;29;20039;-66
2022/06/22 12:49:32;;;;;;;4.85;2.17;;;25.30;58.30;;;;;;4957967;28;20084;-66
2022/06/22 12:52:06;;;;;;;4.95;2.50;;;25.40;62.50;;;;;;4979598;28;20407;-66
2022/06/22 12:54:39;;;;;;;3.47;2.10;;;25.60;62.30;;;;;;4973712;28;20095;-66
2022/06/22 12:57:08;;;;;;;5.20;2.38;;;25.60;57.80;;;;;;4974770;28;20041;-66
2022/06/22 12:59:49;;;;;;;4.97;2.35;;;25.60;58.20;;;;;;4983155;28;20031;-66
2022/06/22 13:02:27;;;;;;;6.47;2.10;;;25.60;57.80;;;;;;4979478;28;20039;-66
2022/06/22 13:05:03;;;;;;;4.93;2.38;;;25.50;54.10;;;;;;4978928;28;20050;-66
2022/06/22 13:07:36;;;;;;;2.70;2.03;;;25.60;59.00;;;;;;4980047;28;20100;-66
2022/06/22 13:10:02;;;;;;;6.35;2.78;;;25.80;57.70;;;;;;4989234;28;20041;-66
2022/06/22 13:12:38;;;;;;;3.95;2.10;;;26.00;58.40;;;;;;4992955;28;20410;-66
2022/06/22 13:15:21;;;;;;;2.10;1.70;;;26.20;55.00;;;;;;4974600;28;20066;-66
2022/06/22 13:18:12;;;;;;;3.90;2.10;;;25.90;50.50;;;;;;4972964;28;20054;-66
2022/06/22 13:20:45;;;;;;;;;;;26.00;56.00;;;;;;4956369;28;20055;-67
2022/06/22 13:23:40;;;;;;;5.47;2.60;;;26.10;54.00;;;;;;4970886;28;20306;-66
2022/06/22 13:26:23;;;;;;;4.15;2.40;;;26.30;52.30;;;;;;4981690;28;20122;-66
2022/06/22 13:29:16;;;;;;;4.45;2.03;;;26.40;52.90;;;;;;4973785;28;20042;-66
2022/06/22 13:31:44;;;;;;;3.67;2.55;;;26.50;55.30;;;;;;4974847;28;20039;-66
2022/06/22 13:34:15;;;;;;;7.85;2.20;;;26.50;56.30;;;;;;4976386;28;20499;-66
2022/06/22 13:36:59;;;;;;;5.57;2.40;;;26.70;54.50;;;;;;4992108;28;20126;-66
2022/06/22 13:39:42;;;;;;;3.28;2.10;;;26.70;52.90;;;;;;4978740;28;20169;-66
2022/06/22 13:42:11;;;;;;;5.68;2.20;;;26.60;53.30;;;;;;4973011;28;20109;-66
2022/06/22 13:44:48;;;;;;;2.10;1.90;;;26.40;52.50;;;;;;4989324;28;20133;-66
2022/06/22 13:47:20;;;;;;;3.88;2.30;;;26.20;54.20;;;;;;4980639;28;20097;-66
2022/06/22 13:50:25;;;;;;;4.53;2.17;;;26.30;55.70;;;;;;4983521;28;20464;-66
2022/06/22 13:52:57;;;;;;;2.83;1.88;;;26.40;56.30;;;;;;4961315;28;20054;-66
2022/06/22 13:55:46;;;;;;;3.83;2.10;;;26.40;53.60;;;;;;4972522;28;20050;-66
2022/06/22 13:58:21;;;;;;;3.40;2.10;;;26.40;55.90;;;;;;4976481;28;20050;-66
2022/06/22 14:01:06;;;;;;;3.70;2.00;;;26.80;56.30;;;;;;4977638;28;20050;-66
2022/06/22 14:04:06;;;;;;;3.95;1.95;;;27.10;52.50;;;;;;4984294;28;20395;-66
2022/06/22 14:06:49;;;;;;;3.25;2.10;;;27.40;51.40;;;;;;4971332;28;20051;-66
2022/06/22 14:09:31;;;;;;;2.78;1.80;;;27.70;51.70;;;;;;4980254;28;20030;-66
2022/06/22 14:12:21;;;;;;;2.63;1.83;;;28.10;53.30;;;;;;4973525;28;20034;-66